aviador You're here:

YPAD Decoded Metar

ADELAIDE in AUSTRALIA
Report Time2017-04-24 13:00:00
UTC Time2017-04-24 13:12:34
Flight Rules mvfr MVFR
Wind270° at 11 kt
W.Decomp.*RWY 23: 9.3 kt HW 5.8 kt RCW
RWY 30: 8.7 kt HW 6.8 kt LCW
W.Rank270° ranks 18
Current wind is above 270° avg. (10.4)
Visibility9999 m
Phenomena:Shower Rain
Clouds:Broken 008 Hf
Few 011 Hf
Broken 020 Hf
Expected CloudBase > 800 ft AGL from Temp-Dew spread
Ceiling2,000 ft
Temp18°C (ISA +3)
Dew Point16°C (88% RH)
AAT16.0°C
QNH1012 hPa
Density Alt643 ft
Elevation13 ft
Report Wrong Elevation
Raw Report
METAR YPAD 241300Z 27011KT 9999 FEW011 BKN020 18/16 Q1012
INTER 1300/1400 3000 SHRA BKN008
INTER 1400/1600 5000 SHRA BKN015=

Extra information for YPAD:More info

Metar Taf Metar & Taf Last 4 Metars F.Rules Stats Wind Profile Meteogram Temp Stats Airport Information Weather charts Add Link Nearby VenuesMetar ALERT Operation Metar Decoded Social comments

Adelaide Airport Webcam